sensor_id;sensor_type;location;lat;lon;timestamp;temperature;humidity
53498;DHT22;39382;47.168;16.008;2023-12-07T00:00:51;0.20;99.90
53498;DHT22;39382;47.168;16.008;2023-12-07T00:03:16;0.20;99.90
53498;DHT22;39382;47.168;16.008;2023-12-07T00:05:42;0.10;99.90
53498;DHT22;39382;47.168;16.008;2023-12-07T00:08:11;0.20;99.90
53498;DHT22;39382;47.168;16.008;2023-12-07T00:10:36;0.10;99.90
53498;DHT22;39382;47.168;16.008;2023-12-07T00:13:02;0.10;99.90
53498;DHT22;39382;47.168;16.008;2023-12-07T00:15:28;0.00;99.90
53498;DHT22;39382;47.168;16.008;2023-12-07T00:17:53;0.00;99.90
53498;DHT22;39382;47.168;16.008;2023-12-07T00:20:19;0.00;99.90
53498;DHT22;39382;47.168;16.008;2023-12-07T00:22:45;0.10;99.90
53498;DHT22;39382;47.168;16.008;2023-12-07T00:25:11;0.00;99.90
53498;DHT22;39382;47.168;16.008;2023-12-07T00:27:37;0.40;99.90
53498;DHT22;39382;47.168;16.008;2023-12-07T00:30:02;0.10;99.90
53498;DHT22;39382;47.168;16.008;2023-12-07T00:32:28;0.00;99.90
53498;DHT22;39382;47.168;16.008;2023-12-07T00:34:54;0.00;99.90
53498;DHT22;39382;47.168;16.008;2023-12-07T00:37:20;0.00;99.90
53498;DHT22;39382;47.168;16.008;2023-12-07T00:39:46;0.00;99.90
53498;DHT22;39382;47.168;16.008;2023-12-07T00:42:11;-0.10;99.90
53498;DHT22;39382;47.168;16.008;2023-12-07T00:44:41;-0.10;99.90
53498;DHT22;39382;47.168;16.008;2023-12-07T00:47:06;-0.10;99.90
53498;DHT22;39382;47.168;16.008;2023-12-07T00:49:33;-0.10;99.90
53498;DHT22;39382;47.168;16.008;2023-12-07T00:51:58;-0.10;99.90
53498;DHT22;39382;47.168;16.008;2023-12-07T00:54:24;-0.10;99.90
53498;DHT22;39382;47.168;16.008;2023-12-07T00:56:49;-0.10;99.90
53498;DHT22;39382;47.168;16.008;2023-12-07T00:59:15;-0.20;99.90
53498;DHT22;39382;47.168;16.008;2023-12-07T01:01:41;-0.20;99.90
53498;DHT22;39382;47.168;16.008;2023-12-07T01:04:06;-0.20;99.90
53498;DHT22;39382;47.168;16.008;2023-12-07T01:06:32;-0.10;99.90
53498;DHT22;39382;47.168;16.008;2023-12-07T01:08:57;-0.20;99.90
53498;DHT22;39382;47.168;16.008;2023-12-07T01:11:23;-0.10;99.90
53498;DHT22;39382;47.168;16.008;2023-12-07T01:13:49;-0.20;99.90
53498;DHT22;39382;47.168;16.008;2023-12-07T01:16:14;-0.20;99.90
53498;DHT22;39382;47.168;16.008;2023-12-07T01:18:40;-0.20;99.90
53498;DHT22;39382;47.168;16.008;2023-12-07T01:21:05;-0.30;99.90
53498;DHT22;39382;47.168;16.008;2023-12-07T01:23:32;-0.30;99.90
53498;DHT22;39382;47.168;16.008;2023-12-07T01:25:57;-0.30;99.90
53498;DHT22;39382;47.168;16.008;2023-12-07T01:28:25;-0.40;99.90
53498;DHT22;39382;47.168;16.008;2023-12-07T01:30:51;-0.40;99.90
53498;DHT22;39382;47.168;16.008;2023-12-07T01:33:16;-0.40;99.90
53498;DHT22;39382;47.168;16.008;2023-12-07T01:35:42;-0.40;99.90
53498;DHT22;39382;47.168;16.008;2023-12-07T01:38:08;-0.50;99.90
53498;DHT22;39382;47.168;16.008;2023-12-07T01:40:34;-0.40;99.90
53498;DHT22;39382;47.168;16.008;2023-12-07T01:43:00;0.40;99.90
53498;DHT22;39382;47.168;16.008;2023-12-07T01:45:25;-0.50;99.90
53498;DHT22;39382;47.168;16.008;2023-12-07T01:47:51;-0.50;99.90
53498;DHT22;39382;47.168;16.008;2023-12-07T01:50:19;-0.50;99.90
53498;DHT22;39382;47.168;16.008;2023-12-07T01:52:57;-0.50;99.90
53498;DHT22;39382;47.168;16.008;2023-12-07T01:55:24;-0.50;99.90
53498;DHT22;39382;47.168;16.008;2023-12-07T01:57:52;-0.50;99.90
53498;DHT22;39382;47.168;16.008;2023-12-07T02:00:18;-0.50;99.90
53498;DHT22;39382;47.168;16.008;2023-12-07T02:02:45;-0.60;99.90
53498;DHT22;39382;47.168;16.008;2023-12-07T02:05:13;-0.60;99.90
53498;DHT22;39382;47.168;16.008;2023-12-07T02:07:41;-0.70;99.90
53498;DHT22;39382;47.168;16.008;2023-12-07T02:10:07;-0.70;99.90
53498;DHT22;39382;47.168;16.008;2023-12-07T02:12:33;-0.60;99.90
53498;DHT22;39382;47.168;16.008;2023-12-07T02:15:00;-0.70;99.90
53498;DHT22;39382;47.168;16.008;2023-12-07T02:17:41;-0.70;99.90
53498;DHT22;39382;47.168;16.008;2023-12-07T02:20:16;-0.70;99.90
53498;DHT22;39382;47.168;16.008;2023-12-07T02:22:44;-0.70;99.90
53498;DHT22;39382;47.168;16.008;2023-12-07T02:25:14;-0.80;99.90
53498;DHT22;39382;47.168;16.008;2023-12-07T02:27:41;-0.80;99.90
53498;DHT22;39382;47.168;16.008;2023-12-07T02:30:09;-0.90;99.90
53498;DHT22;39382;47.168;16.008;2023-12-07T02:32:39;-0.90;99.90
53498;DHT22;39382;47.168;16.008;2023-12-07T02:35:09;-0.90;99.90
53498;DHT22;39382;47.168;16.008;2023-12-07T02:37:42;-0.90;99.90
53498;DHT22;39382;47.168;16.008;2023-12-07T02:40:10;-0.90;99.90
53498;DHT22;39382;47.168;16.008;2023-12-07T02:42:38;-1.00;99.90
53498;DHT22;39382;47.168;16.008;2023-12-07T02:45:05;-1.10;99.90
53498;DHT22;39382;47.168;16.008;2023-12-07T02:47:31;-1.00;99.90
53498;DHT22;39382;47.168;16.008;2023-12-07T02:49:57;-1.00;99.90
53498;DHT22;39382;47.168;16.008;2023-12-07T02:52:23;-1.10;99.90
53498;DHT22;39382;47.168;16.008;2023-12-07T02:54:48;-1.10;99.90
53498;DHT22;39382;47.168;16.008;2023-12-07T02:57:14;-1.10;99.90
53498;DHT22;39382;47.168;16.008;2023-12-07T02:59:40;-1.10;99.90
53498;DHT22;39382;47.168;16.008;2023-12-07T03:02:06;-1.00;99.90
53498;DHT22;39382;47.168;16.008;2023-12-07T03:04:31;-1.00;99.90
53498;DHT22;39382;47.168;16.008;2023-12-07T03:06:58;-1.00;99.90
53498;DHT22;39382;47.168;16.008;2023-12-07T03:09:24;-1.00;99.90
53498;DHT22;39382;47.168;16.008;2023-12-07T03:11:50;-1.00;99.90
53498;DHT22;39382;47.168;16.008;2023-12-07T03:14:16;-1.00;99.90
53498;DHT22;39382;47.168;16.008;2023-12-07T03:16:41;-1.00;99.90
53498;DHT22;39382;47.168;16.008;2023-12-07T03:19:07;-1.00;99.90
53498;DHT22;39382;47.168;16.008;2023-12-07T03:21:32;-1.00;99.90
53498;DHT22;39382;47.168;16.008;2023-12-07T03:23:58;-0.90;99.90
53498;DHT22;39382;47.168;16.008;2023-12-07T03:26:24;-0.90;99.90
53498;DHT22;39382;47.168;16.008;2023-12-07T03:28:49;-0.90;99.90
53498;DHT22;39382;47.168;16.008;2023-12-07T03:31:15;-0.80;99.90
53498;DHT22;39382;47.168;16.008;2023-12-07T03:33:42;-0.80;99.90
53498;DHT22;39382;47.168;16.008;2023-12-07T03:36:11;-0.80;99.90
53498;DHT22;39382;47.168;16.008;2023-12-07T03:38:36;-0.80;99.90
53498;DHT22;39382;47.168;16.008;2023-12-07T03:41:02;-0.90;99.90
53498;DHT22;39382;47.168;16.008;2023-12-07T03:43:27;-0.90;99.90
53498;DHT22;39382;47.168;16.008;2023-12-07T03:45:53;-0.90;99.90
53498;DHT22;39382;47.168;16.008;2023-12-07T03:48:19;-0.90;99.90
53498;DHT22;39382;47.168;16.008;2023-12-07T03:50:44;-0.90;99.90
53498;DHT22;39382;47.168;16.008;2023-12-07T03:53:10;-0.90;99.90
53498;DHT22;39382;47.168;16.008;2023-12-07T03:55:35;-0.80;99.90
53498;DHT22;39382;47.168;16.008;2023-12-07T03:58:02;-0.90;99.90
53498;DHT22;39382;47.168;16.008;2023-12-07T04:00:27;-0.80;99.90
53498;DHT22;39382;47.168;16.008;2023-12-07T04:02:53;-0.90;99.90
53498;DHT22;39382;47.168;16.008;2023-12-07T04:05:19;-0.90;99.90
53498;DHT22;39382;47.168;16.008;2023-12-07T04:07:44;-0.90;99.90
53498;DHT22;39382;47.168;16.008;2023-12-07T04:10:10;-0.80;99.90
53498;DHT22;39382;47.168;16.008;2023-12-07T04:12:36;-0.80;99.90
53498;DHT22;39382;47.168;16.008;2023-12-07T04:15:01;-0.80;99.90
53498;DHT22;39382;47.168;16.008;2023-12-07T04:17:27;-0.80;99.90
53498;DHT22;39382;47.168;16.008;2023-12-07T04:19:53;-0.80;99.90
53498;DHT22;39382;47.168;16.008;2023-12-07T04:22:19;-0.90;99.90
53498;DHT22;39382;47.168;16.008;2023-12-07T04:24:45;-0.90;99.90
53498;DHT22;39382;47.168;16.008;2023-12-07T04:27:10;-0.90;99.90
53498;DHT22;39382;47.168;16.008;2023-12-07T04:29:36;-0.90;99.90
53498;DHT22;39382;47.168;16.008;2023-12-07T04:32:02;-0.90;99.90
53498;DHT22;39382;47.168;16.008;2023-12-07T04:34:27;-1.00;99.90
53498;DHT22;39382;47.168;16.008;2023-12-07T04:36:53;-1.00;99.90
53498;DHT22;39382;47.168;16.008;2023-12-07T04:39:19;-1.00;99.90
53498;DHT22;39382;47.168;16.008;2023-12-07T04:41:44;-0.90;99.90
53498;DHT22;39382;47.168;16.008;2023-12-07T04:44:10;-0.90;99.90
53498;DHT22;39382;47.168;16.008;2023-12-07T04:46:36;-1.00;99.90
53498;DHT22;39382;47.168;16.008;2023-12-07T04:49:01;-1.00;99.90
53498;DHT22;39382;47.168;16.008;2023-12-07T04:51:27;-1.10;99.90
53498;DHT22;39382;47.168;16.008;2023-12-07T04:53:52;-1.10;99.90
53498;DHT22;39382;47.168;16.008;2023-12-07T04:56:18;-1.10;99.90
53498;DHT22;39382;47.168;16.008;2023-12-07T04:58:44;-1.20;99.90
53498;DHT22;39382;47.168;16.008;2023-12-07T05:01:09;-1.10;99.90
53498;DHT22;39382;47.168;16.008;2023-12-07T05:03:35;-1.20;99.90
53498;DHT22;39382;47.168;16.008;2023-12-07T05:06:00;-1.20;99.90
53498;DHT22;39382;47.168;16.008;2023-12-07T05:08:26;-1.20;99.90
53498;DHT22;39382;47.168;16.008;2023-12-07T05:10:53;-1.30;99.90
53498;DHT22;39382;47.168;16.008;2023-12-07T05:13:18;-1.30;99.90
53498;DHT22;39382;47.168;16.008;2023-12-07T05:18:09;-1.40;99.90
53498;DHT22;39382;47.168;16.008;2023-12-07T05:20:35;-1.30;99.90
53498;DHT22;39382;47.168;16.008;2023-12-07T05:23:04;-1.30;99.90
53498;DHT22;39382;47.168;16.008;2023-12-07T05:25:30;-1.40;99.90
53498;DHT22;39382;47.168;16.008;2023-12-07T05:27:56;-1.40;99.90
53498;DHT22;39382;47.168;16.008;2023-12-07T05:30:23;-1.40;99.90
53498;DHT22;39382;47.168;16.008;2023-12-07T05:32:48;-1.40;99.90
53498;DHT22;39382;47.168;16.008;2023-12-07T05:35:14;-1.40;99.90
53498;DHT22;39382;47.168;16.008;2023-12-07T05:37:39;-1.40;99.90
53498;DHT22;39382;47.168;16.008;2023-12-07T05:40:05;-1.40;99.90
53498;DHT22;39382;47.168;16.008;2023-12-07T05:42:32;-1.40;99.90
53498;DHT22;39382;47.168;16.008;2023-12-07T05:44:57;-1.30;99.90
53498;DHT22;39382;47.168;16.008;2023-12-07T05:47:23;-1.40;99.90
53498;DHT22;39382;47.168;16.008;2023-12-07T05:49:49;-1.80;99.90
53498;DHT22;39382;47.168;16.008;2023-12-07T05:52:14;-1.40;99.90
53498;DHT22;39382;47.168;16.008;2023-12-07T05:54:40;-1.50;99.90
53498;DHT22;39382;47.168;16.008;2023-12-07T05:57:07;-1.50;99.90
53498;DHT22;39382;47.168;16.008;2023-12-07T05:59:37;-1.50;99.90
53498;DHT22;39382;47.168;16.008;2023-12-07T06:02:03;-1.60;99.90
53498;DHT22;39382;47.168;16.008;2023-12-07T06:04:30;-1.70;99.90
53498;DHT22;39382;47.168;16.008;2023-12-07T06:06:55;-1.70;99.90
53498;DHT22;39382;47.168;16.008;2023-12-07T06:09:21;-1.70;99.90
53498;DHT22;39382;47.168;16.008;2023-12-07T06:11:47;-1.80;99.90
53498;DHT22;39382;47.168;16.008;2023-12-07T06:14:12;-1.90;99.90
53498;DHT22;39382;47.168;16.008;2023-12-07T06:16:38;-1.90;99.90
53498;DHT22;39382;47.168;16.008;2023-12-07T06:19:03;-2.00;99.90
53498;DHT22;39382;47.168;16.008;2023-12-07T06:21:29;-2.00;99.90
53498;DHT22;39382;47.168;16.008;2023-12-07T06:23:56;-2.00;99.90
53498;DHT22;39382;47.168;16.008;2023-12-07T06:26:22;-1.40;99.90
53498;DHT22;39382;47.168;16.008;2023-12-07T06:28:47;-1.30;99.90
53498;DHT22;39382;47.168;16.008;2023-12-07T06:31:13;-1.60;99.90
53498;DHT22;39382;47.168;16.008;2023-12-07T06:33:41;-1.70;99.90
53498;DHT22;39382;47.168;16.008;2023-12-07T06:36:07;-1.80;99.90
53498;DHT22;39382;47.168;16.008;2023-12-07T06:38:32;-1.90;99.90
53498;DHT22;39382;47.168;16.008;2023-12-07T06:40:58;-2.00;99.90
53498;DHT22;39382;47.168;16.008;2023-12-07T06:43:24;-1.60;99.90
53498;DHT22;39382;47.168;16.008;2023-12-07T06:45:50;-2.00;99.90
53498;DHT22;39382;47.168;16.008;2023-12-07T06:48:15;-2.00;99.90
53498;DHT22;39382;47.168;16.008;2023-12-07T06:50:41;-2.00;99.90
53498;DHT22;39382;47.168;16.008;2023-12-07T06:53:07;-2.10;99.90
53498;DHT22;39382;47.168;16.008;2023-12-07T06:55:32;-2.10;99.90
53498;DHT22;39382;47.168;16.008;2023-12-07T06:57:58;-2.10;99.90
53498;DHT22;39382;47.168;16.008;2023-12-07T07:00:24;-2.20;99.90
53498;DHT22;39382;47.168;16.008;2023-12-07T07:02:50;-2.20;99.90
53498;DHT22;39382;47.168;16.008;2023-12-07T07:05:15;-2.20;99.90
53498;DHT22;39382;47.168;16.008;2023-12-07T07:07:41;-2.20;99.90
53498;DHT22;39382;47.168;16.008;2023-12-07T07:10:07;-2.20;99.90
53498;DHT22;39382;47.168;16.008;2023-12-07T07:12:35;-2.10;99.90
53498;DHT22;39382;47.168;16.008;2023-12-07T07:15:01;-2.10;99.90
53498;DHT22;39382;47.168;16.008;2023-12-07T07:17:26;-2.00;99.90
53498;DHT22;39382;47.168;16.008;2023-12-07T07:19:54;-2.00;99.90
53498;DHT22;39382;47.168;16.008;2023-12-07T07:22:21;-2.00;99.90
53498;DHT22;39382;47.168;16.008;2023-12-07T07:24:47;-2.00;99.90
53498;DHT22;39382;47.168;16.008;2023-12-07T07:27:12;-2.00;99.90
53498;DHT22;39382;47.168;16.008;2023-12-07T07:29:38;-1.90;99.90
53498;DHT22;39382;47.168;16.008;2023-12-07T07:32:05;-1.90;99.90
53498;DHT22;39382;47.168;16.008;2023-12-07T07:34:31;-1.80;99.90
53498;DHT22;39382;47.168;16.008;2023-12-07T07:36:57;-1.70;99.90
53498;DHT22;39382;47.168;16.008;2023-12-07T07:39:22;-1.60;99.90
53498;DHT22;39382;47.168;16.008;2023-12-07T07:41:48;-1.60;99.90
53498;DHT22;39382;47.168;16.008;2023-12-07T07:44:14;-1.70;99.90
53498;DHT22;39382;47.168;16.008;2023-12-07T07:46:42;-1.70;99.90
53498;DHT22;39382;47.168;16.008;2023-12-07T07:49:08;-1.70;99.90
53498;DHT22;39382;47.168;16.008;2023-12-07T07:51:34;-1.60;99.90
53498;DHT22;39382;47.168;16.008;2023-12-07T07:54:00;-1.50;99.90
53498;DHT22;39382;47.168;16.008;2023-12-07T07:56:26;-1.50;99.90
53498;DHT22;39382;47.168;16.008;2023-12-07T07:58:51;-1.50;99.90
53498;DHT22;39382;47.168;16.008;2023-12-07T08:01:17;-1.30;99.90
53498;DHT22;39382;47.168;16.008;2023-12-07T08:03:42;-1.20;99.90
53498;DHT22;39382;47.168;16.008;2023-12-07T08:06:08;-1.20;99.90
53498;DHT22;39382;47.168;16.008;2023-12-07T08:08:34;-1.10;99.90
53498;DHT22;39382;47.168;16.008;2023-12-07T08:10:59;-1.00;99.90
53498;DHT22;39382;47.168;16.008;2023-12-07T08:13:26;-1.00;99.90
53498;DHT22;39382;47.168;16.008;2023-12-07T08:15:53;-0.90;99.90
53498;DHT22;39382;47.168;16.008;2023-12-07T08:18:19;-0.90;99.90
53498;DHT22;39382;47.168;16.008;2023-12-07T08:20:44;-0.80;99.90
53498;DHT22;39382;47.168;16.008;2023-12-07T08:23:11;-0.70;99.90
53498;DHT22;39382;47.168;16.008;2023-12-07T08:25:38;-0.60;99.90
53498;DHT22;39382;47.168;16.008;2023-12-07T08:28:04;-0.40;99.90
53498;DHT22;39382;47.168;16.008;2023-12-07T08:30:30;-0.10;99.90
53498;DHT22;39382;47.168;16.008;2023-12-07T08:32:56;0.10;99.90
53498;DHT22;39382;47.168;16.008;2023-12-07T08:35:21;0.30;99.90
53498;DHT22;39382;47.168;16.008;2023-12-07T08:37:48;0.50;99.90
53498;DHT22;39382;47.168;16.008;2023-12-07T08:40:14;0.60;99.90
53498;DHT22;39382;47.168;16.008;2023-12-07T08:42:43;0.90;99.90
53498;DHT22;39382;47.168;16.008;2023-12-07T08:45:09;1.70;99.90
53498;DHT22;39382;47.168;16.008;2023-12-07T08:47:35;1.90;99.90
53498;DHT22;39382;47.168;16.008;2023-12-07T08:50:01;2.10;99.90
53498;DHT22;39382;47.168;16.008;2023-12-07T08:52:26;2.30;99.90
53498;DHT22;39382;47.168;16.008;2023-12-07T08:54:52;2.50;99.90
53498;DHT22;39382;47.168;16.008;2023-12-07T08:57:18;2.70;99.90
53498;DHT22;39382;47.168;16.008;2023-12-07T08:59:44;2.80;99.90
53498;DHT22;39382;47.168;16.008;2023-12-07T09:02:09;2.90;99.90
53498;DHT22;39382;47.168;16.008;2023-12-07T09:04:35;2.80;99.90
53498;DHT22;39382;47.168;16.008;2023-12-07T09:07:01;3.20;99.90
53498;DHT22;39382;47.168;16.008;2023-12-07T09:09:26;2.80;99.90
53498;DHT22;39382;47.168;16.008;2023-12-07T09:11:52;3.30;99.90
53498;DHT22;39382;47.168;16.008;2023-12-07T09:14:18;3.40;99.90
53498;DHT22;39382;47.168;16.008;2023-12-07T09:16:44;3.40;99.90
53498;DHT22;39382;47.168;16.008;2023-12-07T09:19:14;3.30;99.90
53498;DHT22;39382;47.168;16.008;2023-12-07T09:21:42;3.30;99.90
53498;DHT22;39382;47.168;16.008;2023-12-07T09:24:08;3.30;99.90
53498;DHT22;39382;47.168;16.008;2023-12-07T09:26:33;3.60;99.90
53498;DHT22;39382;47.168;16.008;2023-12-07T09:28:59;3.60;99.90
53498;DHT22;39382;47.168;16.008;2023-12-07T09:31:25;3.60;99.90
53498;DHT22;39382;47.168;16.008;2023-12-07T09:33:51;3.60;99.90
53498;DHT22;39382;47.168;16.008;2023-12-07T09:36:19;3.80;99.90
53498;DHT22;39382;47.168;16.008;2023-12-07T09:38:46;3.90;99.60
53498;DHT22;39382;47.168;16.008;2023-12-07T09:41:12;3.60;98.10
53498;DHT22;39382;47.168;16.008;2023-12-07T09:43:39;4.30;99.90
53498;DHT22;39382;47.168;16.008;2023-12-07T09:46:05;4.10;99.90
53498;DHT22;39382;47.168;16.008;2023-12-07T09:48:32;4.30;97.50
53498;DHT22;39382;47.168;16.008;2023-12-07T09:50:59;5.60;96.90
53498;DHT22;39382;47.168;16.008;2023-12-07T09:53:28;4.60;96.70
53498;DHT22;39382;47.168;16.008;2023-12-07T09:55:54;3.90;96.00
53498;DHT22;39382;47.168;16.008;2023-12-07T09:58:20;4.80;95.00
53498;DHT22;39382;47.168;16.008;2023-12-07T10:00:47;5.80;94.20
53498;DHT22;39382;47.168;16.008;2023-12-07T10:03:20;4.60;94.50
53498;DHT22;39382;47.168;16.008;2023-12-07T10:05:59;4.50;94.60
53498;DHT22;39382;47.168;16.008;2023-12-07T10:08:34;4.70;93.70
53498;DHT22;39382;47.168;16.008;2023-12-07T10:11:06;4.60;93.60
53498;DHT22;39382;47.168;16.008;2023-12-07T10:13:33;4.80;92.70
53498;DHT22;39382;47.168;16.008;2023-12-07T10:16:13;4.90;91.80
53498;DHT22;39382;47.168;16.008;2023-12-07T10:18:40;5.40;91.60
53498;DHT22;39382;47.168;16.008;2023-12-07T10:21:07;4.70;91.30
53498;DHT22;39382;47.168;16.008;2023-12-07T10:23:35;4.40;91.10
53498;DHT22;39382;47.168;16.008;2023-12-07T10:26:01;5.10;91.70
53498;DHT22;39382;47.168;16.008;2023-12-07T10:28:27;5.80;92.00
53498;DHT22;39382;47.168;16.008;2023-12-07T10:30:52;6.10;91.60
53498;DHT22;39382;47.168;16.008;2023-12-07T10:33:19;5.20;91.10
53498;DHT22;39382;47.168;16.008;2023-12-07T10:35:47;5.30;90.50
53498;DHT22;39382;47.168;16.008;2023-12-07T10:38:14;5.50;90.60
53498;DHT22;39382;47.168;16.008;2023-12-07T10:40:39;6.10;90.20
53498;DHT22;39382;47.168;16.008;2023-12-07T10:43:06;6.00;88.40
53498;DHT22;39382;47.168;16.008;2023-12-07T10:45:34;5.40;88.90
53498;DHT22;39382;47.168;16.008;2023-12-07T10:48:07;5.80;89.20
53498;DHT22;39382;47.168;16.008;2023-12-07T10:50:35;5.50;87.30
53498;DHT22;39382;47.168;16.008;2023-12-07T10:53:27;5.40;86.20
53498;DHT22;39382;47.168;16.008;2023-12-07T10:55:56;5.50;87.40
53498;DHT22;39382;47.168;16.008;2023-12-07T10:58:25;5.60;87.10
53498;DHT22;39382;47.168;16.008;2023-12-07T11:00:55;5.90;85.90
53498;DHT22;39382;47.168;16.008;2023-12-07T11:03:21;5.60;84.80
53498;DHT22;39382;47.168;16.008;2023-12-07T11:05:48;6.30;84.10
53498;DHT22;39382;47.168;16.008;2023-12-07T11:08:24;5.80;83.40
53498;DHT22;39382;47.168;16.008;2023-12-07T11:11:33;5.70;83.90
53498;DHT22;39382;47.168;16.008;2023-12-07T11:13:57;5.80;82.90
53498;DHT22;39382;47.168;16.008;2023-12-07T11:16:36;5.60;83.80
53498;DHT22;39382;47.168;16.008;2023-12-07T11:19:05;5.90;82.00
53498;DHT22;39382;47.168;16.008;2023-12-07T11:21:48;6.00;83.10
53498;DHT22;39382;47.168;16.008;2023-12-07T11:24:16;6.00;82.60
53498;DHT22;39382;47.168;16.008;2023-12-07T11:26:42;6.10;81.40
53498;DHT22;39382;47.168;16.008;2023-12-07T11:29:10;5.90;79.30
53498;DHT22;39382;47.168;16.008;2023-12-07T11:31:37;5.90;80.70
53498;DHT22;39382;47.168;16.008;2023-12-07T11:34:06;6.00;80.60
53498;DHT22;39382;47.168;16.008;2023-12-07T11:36:33;6.00;81.10
53498;DHT22;39382;47.168;16.008;2023-12-07T11:41:40;6.50;80.20
53498;DHT22;39382;47.168;16.008;2023-12-07T11:44:09;6.00;79.60
53498;DHT22;39382;47.168;16.008;2023-12-07T11:46:36;6.10;80.30
53498;DHT22;39382;47.168;16.008;2023-12-07T11:49:02;6.00;79.70
53498;DHT22;39382;47.168;16.008;2023-12-07T11:51:29;6.30;78.90
53498;DHT22;39382;47.168;16.008;2023-12-07T11:53:55;6.00;80.20
53498;DHT22;39382;47.168;16.008;2023-12-07T11:56:21;6.30;85.50
53498;DHT22;39382;47.168;16.008;2023-12-07T11:58:47;7.00;80.30
53498;DHT22;39382;47.168;16.008;2023-12-07T12:01:13;6.60;78.20
53498;DHT22;39382;47.168;16.008;2023-12-07T12:03:39;6.30;76.90
53498;DHT22;39382;47.168;16.008;2023-12-07T12:06:06;6.50;77.70
53498;DHT22;39382;47.168;16.008;2023-12-07T12:08:33;6.20;77.20
53498;DHT22;39382;47.168;16.008;2023-12-07T12:10:59;6.60;77.10
53498;DHT22;39382;47.168;16.008;2023-12-07T12:13:28;6.20;77.00
53498;DHT22;39382;47.168;16.008;2023-12-07T12:15:55;6.40;78.00
53498;DHT22;39382;47.168;16.008;2023-12-07T12:18:22;6.00;76.80
53498;DHT22;39382;47.168;16.008;2023-12-07T12:20:50;6.90;77.30
53498;DHT22;39382;47.168;16.008;2023-12-07T12:23:15;6.00;76.80
53498;DHT22;39382;47.168;16.008;2023-12-07T12:25:41;6.10;77.70
53498;DHT22;39382;47.168;16.008;2023-12-07T12:28:07;6.30;76.80
53498;DHT22;39382;47.168;16.008;2023-12-07T12:30:33;6.10;75.70
53498;DHT22;39382;47.168;16.008;2023-12-07T12:33:00;6.10;77.40
53498;DHT22;39382;47.168;16.008;2023-12-07T12:35:25;6.30;76.00
53498;DHT22;39382;47.168;16.008;2023-12-07T12:37:51;6.00;76.30
53498;DHT22;39382;47.168;16.008;2023-12-07T12:40:19;6.00;74.90
53498;DHT22;39382;47.168;16.008;2023-12-07T12:42:52;6.80;74.60
53498;DHT22;39382;47.168;16.008;2023-12-07T12:45:18;6.10;76.80
53498;DHT22;39382;47.168;16.008;2023-12-07T12:47:45;6.10;73.20
53498;DHT22;39382;47.168;16.008;2023-12-07T12:50:12;6.10;75.70
53498;DHT22;39382;47.168;16.008;2023-12-07T12:52:58;6.70;75.80
53498;DHT22;39382;47.168;16.008;2023-12-07T12:55:26;6.50;73.40
53498;DHT22;39382;47.168;16.008;2023-12-07T12:57:52;6.10;75.20
53498;DHT22;39382;47.168;16.008;2023-12-07T13:00:17;6.10;76.20
53498;DHT22;39382;47.168;16.008;2023-12-07T13:02:43;6.00;73.70
53498;DHT22;39382;47.168;16.008;2023-12-07T13:05:09;6.70;74.50
53498;DHT22;39382;47.168;16.008;2023-12-07T13:07:34;5.70;74.90
53498;DHT22;39382;47.168;16.008;2023-12-07T13:10:01;5.80;75.00
53498;DHT22;39382;47.168;16.008;2023-12-07T13:12:27;5.80;73.70
53498;DHT22;39382;47.168;16.008;2023-12-07T13:14:54;5.70;73.90
53498;DHT22;39382;47.168;16.008;2023-12-07T13:17:20;6.20;74.20
53498;DHT22;39382;47.168;16.008;2023-12-07T13:19:46;5.50;74.10
53498;DHT22;39382;47.168;16.008;2023-12-07T13:22:11;6.00;75.20
53498;DHT22;39382;47.168;16.008;2023-12-07T13:24:37;5.60;75.10
53498;DHT22;39382;47.168;16.008;2023-12-07T13:27:03;5.20;74.30
53498;DHT22;39382;47.168;16.008;2023-12-07T13:29:29;5.50;75.10
53498;DHT22;39382;47.168;16.008;2023-12-07T13:31:54;6.60;75.50
53498;DHT22;39382;47.168;16.008;2023-12-07T13:34:20;5.10;74.50
53498;DHT22;39382;47.168;16.008;2023-12-07T13:36:46;5.60;75.20
53498;DHT22;39382;47.168;16.008;2023-12-07T13:39:12;6.00;75.80
53498;DHT22;39382;47.168;16.008;2023-12-07T13:41:38;5.40;75.90
53498;DHT22;39382;47.168;16.008;2023-12-07T13:44:04;4.70;77.10
53498;DHT22;39382;47.168;16.008;2023-12-07T13:46:30;5.80;77.70
53498;DHT22;39382;47.168;16.008;2023-12-07T13:48:57;5.40;76.60
53498;DHT22;39382;47.168;16.008;2023-12-07T13:51:23;5.90;77.50
53498;DHT22;39382;47.168;16.008;2023-12-07T13:53:48;5.90;77.80
53498;DHT22;39382;47.168;16.008;2023-12-07T13:56:15;5.40;76.40
53498;DHT22;39382;47.168;16.008;2023-12-07T13:58:41;6.00;78.10
53498;DHT22;39382;47.168;16.008;2023-12-07T14:01:06;4.50;77.60
53498;DHT22;39382;47.168;16.008;2023-12-07T14:03:32;4.50;78.30
53498;DHT22;39382;47.168;16.008;2023-12-07T14:05:58;4.40;78.40
53498;DHT22;39382;47.168;16.008;2023-12-07T14:08:23;5.80;79.00
53498;DHT22;39382;47.168;16.008;2023-12-07T14:10:51;4.30;78.40
53498;DHT22;39382;47.168;16.008;2023-12-07T14:13:17;5.60;79.30
53498;DHT22;39382;47.168;16.008;2023-12-07T14:15:43;4.10;78.40
53498;DHT22;39382;47.168;16.008;2023-12-07T14:18:08;4.50;79.00
53498;DHT22;39382;47.168;16.008;2023-12-07T14:20:34;4.40;78.40
53498;DHT22;39382;47.168;16.008;2023-12-07T14:23:00;4.00;78.10
53498;DHT22;39382;47.168;16.008;2023-12-07T14:25:30;4.20;78.90
53498;DHT22;39382;47.168;16.008;2023-12-07T14:27:56;4.00;78.80
53498;DHT22;39382;47.168;16.008;2023-12-07T14:30:21;4.20;79.50
53498;DHT22;39382;47.168;16.008;2023-12-07T14:32:48;3.80;79.90
53498;DHT22;39382;47.168;16.008;2023-12-07T14:35:20;4.30;80.40
53498;DHT22;39382;47.168;16.008;2023-12-07T14:37:46;4.10;79.90
53498;DHT22;39382;47.168;16.008;2023-12-07T14:40:14;3.80;79.80
53498;DHT22;39382;47.168;16.008;2023-12-07T14:42:41;4.00;81.00
53498;DHT22;39382;47.168;16.008;2023-12-07T14:45:07;3.80;81.30
53498;DHT22;39382;47.168;16.008;2023-12-07T14:47:33;3.80;82.10
53498;DHT22;39382;47.168;16.008;2023-12-07T14:49:58;4.30;82.60
53498;DHT22;39382;47.168;16.008;2023-12-07T14:52:24;3.50;82.90
53498;DHT22;39382;47.168;16.008;2023-12-07T14:54:50;3.50;82.60
53498;DHT22;39382;47.168;16.008;2023-12-07T14:57:15;3.30;83.40
53498;DHT22;39382;47.168;16.008;2023-12-07T14:59:41;3.20;84.10
53498;DHT22;39382;47.168;16.008;2023-12-07T15:02:06;3.10;84.50
53498;DHT22;39382;47.168;16.008;2023-12-07T15:04:32;3.10;87.50
53498;DHT22;39382;47.168;16.008;2023-12-07T15:06:58;3.20;90.70
53498;DHT22;39382;47.168;16.008;2023-12-07T15:09:23;2.70;91.30
53498;DHT22;39382;47.168;16.008;2023-12-07T15:11:49;3.20;92.20
53498;DHT22;39382;47.168;16.008;2023-12-07T15:14:14;2.60;93.60
53498;DHT22;39382;47.168;16.008;2023-12-07T15:16:40;2.20;94.90
53498;DHT22;39382;47.168;16.008;2023-12-07T15:19:05;2.30;95.70
53498;DHT22;39382;47.168;16.008;2023-12-07T15:21:31;2.10;96.60
53498;DHT22;39382;47.168;16.008;2023-12-07T15:23:58;1.90;98.00